sensor_id;sensor_type;location;lat;lon;timestamp;pressure;altitude;pressure_sealevel;temperature;humidity
68873;BME280;55907;50.806;12.882;2022-08-19T00:01:05;967.7;;;20.6;84.4
68873;BME280;55907;50.806;12.882;2022-08-19T00:04:10;967.7;;;20.5;84.8
68873;BME280;55907;50.806;12.882;2022-08-19T00:07:08;967.7;;;20.6;84.8
68873;BME280;55907;50.806;12.882;2022-08-19T00:10:12;967.7;;;20.6;84.6
68873;BME280;55907;50.806;12.882;2022-08-19T00:13:10;967.7;;;20.6;84.8
68873;BME280;55907;50.806;12.882;2022-08-19T00:16:12;967.7;;;20.6;84.4
68873;BME280;55907;50.806;12.882;2022-08-19T00:19:14;967.7;;;20.7;83.9
68873;BME280;55907;50.806;12.882;2022-08-19T00:22:15;967.7;;;20.6;84.0
68873;BME280;55907;50.806;12.882;2022-08-19T00:25:16;967.7;;;20.6;84.0
68873;BME280;55907;50.806;12.882;2022-08-19T00:28:18;967.7;;;20.6;83.8
68873;BME280;55907;50.806;12.882;2022-08-19T00:31:19;967.6;;;20.7;83.7
68873;BME280;55907;50.806;12.882;2022-08-19T00:34:21;967.6;;;20.7;83.8
68873;BME280;55907;50.806;12.882;2022-08-19T00:37:23;967.6;;;20.6;83.9
68873;BME280;55907;50.806;12.882;2022-08-19T00:40:23;967.6;;;20.6;83.9
68873;BME280;55907;50.806;12.882;2022-08-19T00:46:26;967.6;;;20.5;84.3
68873;BME280;55907;50.806;12.882;2022-08-19T00:49:30;967.5;;;20.5;84.4
68873;BME280;55907;50.806;12.882;2022-08-19T00:52:32;967.4;;;20.6;84.4
68873;BME280;55907;50.806;12.882;2022-08-19T00:55:31;967.4;;;20.5;84.4
68873;BME280;55907;50.806;12.882;2022-08-19T00:58:33;967.3;;;20.5;84.5
68873;BME280;55907;50.806;12.882;2022-08-19T01:01:32;967.3;;;20.5;84.4
68873;BME280;55907;50.806;12.882;2022-08-19T01:04:34;967.4;;;20.6;84.5
68873;BME280;55907;50.806;12.882;2022-08-19T01:07:37;967.5;;;20.5;84.9
68873;BME280;55907;50.806;12.882;2022-08-19T01:10:40;967.5;;;20.5;85.1
68873;BME280;55907;50.806;12.882;2022-08-19T01:13:38;967.4;;;20.5;85.1
68873;BME280;55907;50.806;12.882;2022-08-19T01:16:40;967.5;;;20.5;85.3
68873;BME280;55907;50.806;12.882;2022-08-19T01:19:42;967.4;;;20.4;86.0
68873;BME280;55907;50.806;12.882;2022-08-19T01:22:44;967.5;;;20.4;85.3
68873;BME280;55907;50.806;12.882;2022-08-19T01:25:48;967.5;;;20.4;86.5
68873;BME280;55907;50.806;12.882;2022-08-19T01:28:47;967.4;;;20.4;85.3
68873;BME280;55907;50.806;12.882;2022-08-19T01:31:46;967.4;;;20.4;86.3
68873;BME280;55907;50.806;12.882;2022-08-19T01:34:47;967.4;;;20.4;86.4
68873;BME280;55907;50.806;12.882;2022-08-19T01:37:52;967.4;;;20.4;86.5
68873;BME280;55907;50.806;12.882;2022-08-19T01:40:51;967.4;;;20.4;85.7
68873;BME280;55907;50.806;12.882;2022-08-19T01:43:54;967.4;;;20.3;86.5
68873;BME280;55907;50.806;12.882;2022-08-19T01:46:53;967.4;;;20.3;87.3
68873;BME280;55907;50.806;12.882;2022-08-19T01:49:54;967.2;;;20.3;87.1
68873;BME280;55907;50.806;12.882;2022-08-19T01:52:56;967.2;;;20.3;86.6
68873;BME280;55907;50.806;12.882;2022-08-19T01:55:58;967.2;;;20.3;86.7
68873;BME280;55907;50.806;12.882;2022-08-19T01:59:00;967.2;;;20.3;87.3
68873;BME280;55907;50.806;12.882;2022-08-19T02:02:00;967.2;;;20.3;87.4
68873;BME280;55907;50.806;12.882;2022-08-19T02:05:02;967.2;;;20.4;86.5
68873;BME280;55907;50.806;12.882;2022-08-19T02:11:05;967.3;;;20.3;87.6
68873;BME280;55907;50.806;12.882;2022-08-19T02:14:07;967.5;;;20.4;87.6
68873;BME280;55907;50.806;12.882;2022-08-19T02:17:07;967.6;;;20.4;87.6
68873;BME280;55907;50.806;12.882;2022-08-19T02:20:09;967.6;;;20.4;87.9
68873;BME280;55907;50.806;12.882;2022-08-19T02:23:11;967.6;;;20.4;87.8
68873;BME280;55907;50.806;12.882;2022-08-19T02:26:11;967.5;;;20.4;87.8
68873;BME280;55907;50.806;12.882;2022-08-19T02:29:12;967.5;;;20.5;86.6
68873;BME280;55907;50.806;12.882;2022-08-19T02:32:13;967.4;;;20.5;86.4
68873;BME280;55907;50.806;12.882;2022-08-19T02:35:15;967.3;;;20.5;86.2
68873;BME280;55907;50.806;12.882;2022-08-19T02:44:19;967.5;;;20.4;86.8
68873;BME280;55907;50.806;12.882;2022-08-19T02:47:20;967.7;;;20.4;87.3
68873;BME280;55907;50.806;12.882;2022-08-19T02:50:22;967.7;;;20.4;87.3
68873;BME280;55907;50.806;12.882;2022-08-19T02:53:26;967.7;;;20.4;87.3
68873;BME280;55907;50.806;12.882;2022-08-19T02:56:25;967.7;;;20.4;87.1
68873;BME280;55907;50.806;12.882;2022-08-19T03:02:27;967.8;;;20.5;86.6
68873;BME280;55907;50.806;12.882;2022-08-19T03:05:28;967.9;;;20.5;86.8
68873;BME280;55907;50.806;12.882;2022-08-19T03:08:30;967.9;;;20.5;87.0
68873;BME280;55907;50.806;12.882;2022-08-19T03:11:32;968.0;;;20.5;87.0
68873;BME280;55907;50.806;12.882;2022-08-19T03:14:33;967.9;;;20.5;87.3
68873;BME280;55907;50.806;12.882;2022-08-19T03:17:34;967.9;;;20.5;87.1
68873;BME280;55907;50.806;12.882;2022-08-19T03:20:40;967.9;;;20.5;86.6
68873;BME280;55907;50.806;12.882;2022-08-19T03:23:37;967.9;;;20.5;87.1
68873;BME280;55907;50.806;12.882;2022-08-19T03:26:39;967.9;;;20.5;87.5
68873;BME280;55907;50.806;12.882;2022-08-19T03:29:39;967.8;;;20.5;87.5
68873;BME280;55907;50.806;12.882;2022-08-19T03:32:41;967.8;;;20.5;87.3
68873;BME280;55907;50.806;12.882;2022-08-19T03:35:42;967.8;;;20.4;88.5
68873;BME280;55907;50.806;12.882;2022-08-19T03:38:46;967.8;;;20.4;88.4
68873;BME280;55907;50.806;12.882;2022-08-19T03:41:46;967.9;;;20.3;88.8
68873;BME280;55907;50.806;12.882;2022-08-19T03:44:46;967.9;;;20.3;89.6
68873;BME280;55907;50.806;12.882;2022-08-19T03:47:48;967.9;;;20.3;89.4
68873;BME280;55907;50.806;12.882;2022-08-19T03:50:49;967.9;;;20.3;90.0
68873;BME280;55907;50.806;12.882;2022-08-19T03:53:51;967.9;;;20.3;89.9
68873;BME280;55907;50.806;12.882;2022-08-19T03:56:54;967.9;;;20.4;89.4
68873;BME280;55907;50.806;12.882;2022-08-19T03:59:53;968.0;;;20.3;89.7
68873;BME280;55907;50.806;12.882;2022-08-19T04:02:55;967.9;;;20.3;89.8
68873;BME280;55907;50.806;12.882;2022-08-19T04:05:56;967.9;;;20.3;88.7
68873;BME280;55907;50.806;12.882;2022-08-19T04:08:59;967.9;;;20.3;90.2
68873;BME280;55907;50.806;12.882;2022-08-19T04:11:59;967.8;;;20.2;90.8
68873;BME280;55907;50.806;12.882;2022-08-19T04:15:00;967.9;;;20.2;90.7
68873;BME280;55907;50.806;12.882;2022-08-19T04:18:01;967.9;;;20.2;90.9
68873;BME280;55907;50.806;12.882;2022-08-19T04:21:04;967.8;;;20.2;91.2
68873;BME280;55907;50.806;12.882;2022-08-19T04:24:05;967.8;;;20.1;91.8
68873;BME280;55907;50.806;12.882;2022-08-19T04:27:05;967.8;;;20.1;92.5
68873;BME280;55907;50.806;12.882;2022-08-19T04:30:07;967.8;;;20.0;92.8
68873;BME280;55907;50.806;12.882;2022-08-19T04:33:09;967.8;;;20.0;92.8
68873;BME280;55907;50.806;12.882;2022-08-19T04:36:16;967.9;;;20.1;91.7
68873;BME280;55907;50.806;12.882;2022-08-19T04:39:14;967.8;;;20.1;92.1
68873;BME280;55907;50.806;12.882;2022-08-19T04:42:13;967.8;;;20.1;92.2
68873;BME280;55907;50.806;12.882;2022-08-19T04:45:14;967.8;;;20.0;92.1
68873;BME280;55907;50.806;12.882;2022-08-19T04:48:15;967.7;;;20.0;92.5
68873;BME280;55907;50.806;12.882;2022-08-19T04:51:16;967.8;;;20.0;92.6
68873;BME280;55907;50.806;12.882;2022-08-19T04:54:18;967.9;;;20.0;92.6
68873;BME280;55907;50.806;12.882;2022-08-19T04:57:19;968.0;;;20.0;92.7
68873;BME280;55907;50.806;12.882;2022-08-19T05:03:22;967.9;;;20.0;93.2
68873;BME280;55907;50.806;12.882;2022-08-19T05:06:23;967.9;;;20.0;93.2
68873;BME280;55907;50.806;12.882;2022-08-19T05:09:24;967.9;;;20.0;93.1
68873;BME280;55907;50.806;12.882;2022-08-19T05:12:26;967.9;;;20.0;93.2
68873;BME280;55907;50.806;12.882;2022-08-19T05:15:27;967.9;;;20.0;93.1
68873;BME280;55907;50.806;12.882;2022-08-19T05:18:28;967.9;;;20.1;93.0
68873;BME280;55907;50.806;12.882;2022-08-19T05:21:31;968.0;;;20.1;93.0
68873;BME280;55907;50.806;12.882;2022-08-19T05:24:32;968.0;;;20.1;92.8
68873;BME280;55907;50.806;12.882;2022-08-19T05:27:33;968.1;;;20.1;92.6
68873;BME280;55907;50.806;12.882;2022-08-19T05:30:34;968.1;;;20.1;92.5
68873;BME280;55907;50.806;12.882;2022-08-19T05:33:35;968.2;;;20.2;92.0
68873;BME280;55907;50.806;12.882;2022-08-19T05:36:39;968.2;;;20.2;92.3
68873;BME280;55907;50.806;12.882;2022-08-19T05:39:38;968.2;;;20.3;92.0
68873;BME280;55907;50.806;12.882;2022-08-19T05:42:39;968.4;;;20.3;92.1
68873;BME280;55907;50.806;12.882;2022-08-19T05:45:42;968.5;;;20.3;92.1
68873;BME280;55907;50.806;12.882;2022-08-19T05:48:42;968.5;;;20.3;92.3
68873;BME280;55907;50.806;12.882;2022-08-19T05:51:43;968.6;;;20.3;92.5
68873;BME280;55907;50.806;12.882;2022-08-19T05:54:45;968.7;;;20.4;91.9
68873;BME280;55907;50.806;12.882;2022-08-19T05:57:46;968.7;;;20.4;91.4
68873;BME280;55907;50.806;12.882;2022-08-19T06:00:47;968.8;;;20.4;91.9
68873;BME280;55907;50.806;12.882;2022-08-19T06:03:49;969.0;;;20.4;91.7
68873;BME280;55907;50.806;12.882;2022-08-19T06:06:52;969.0;;;20.4;91.4
68873;BME280;55907;50.806;12.882;2022-08-19T06:09:52;969.0;;;20.3;91.9
68873;BME280;55907;50.806;12.882;2022-08-19T06:12:53;969.1;;;20.3;92.5
68873;BME280;55907;50.806;12.882;2022-08-19T06:15:54;969.1;;;20.2;92.8
68873;BME280;55907;50.806;12.882;2022-08-19T06:18:56;969.2;;;20.2;93.0
68873;BME280;55907;50.806;12.882;2022-08-19T06:21:58;969.2;;;20.1;93.1
68873;BME280;55907;50.806;12.882;2022-08-19T06:24:58;969.3;;;20.1;93.4
68873;BME280;55907;50.806;12.882;2022-08-19T06:28:00;969.4;;;20.1;93.0
68873;BME280;55907;50.806;12.882;2022-08-19T06:31:06;969.4;;;20.1;92.9
68873;BME280;55907;50.806;12.882;2022-08-19T06:34:04;969.3;;;20.1;93.3
68873;BME280;55907;50.806;12.882;2022-08-19T06:37:04;969.3;;;20.1;93.4
68873;BME280;55907;50.806;12.882;2022-08-19T06:40:06;969.4;;;20.1;93.5
68873;BME280;55907;50.806;12.882;2022-08-19T06:43:07;969.4;;;20.2;92.8
68873;BME280;55907;50.806;12.882;2022-08-19T06:46:11;969.5;;;20.2;92.6
68873;BME280;55907;50.806;12.882;2022-08-19T06:49:09;969.5;;;20.3;92.4
68873;BME280;55907;50.806;12.882;2022-08-19T06:52:12;969.4;;;20.5;90.8
68873;BME280;55907;50.806;12.882;2022-08-19T06:55:12;969.4;;;20.6;90.3
68873;BME280;55907;50.806;12.882;2022-08-19T06:58:13;969.4;;;20.7;89.9
68873;BME280;55907;50.806;12.882;2022-08-19T07:01:15;969.4;;;20.8;89.8
68873;BME280;55907;50.806;12.882;2022-08-19T07:04:18;969.4;;;20.8;89.5
68873;BME280;55907;50.806;12.882;2022-08-19T07:07:20;969.4;;;20.8;89.2
68873;BME280;55907;50.806;12.882;2022-08-19T07:13:20;969.3;;;20.9;88.4
68873;BME280;55907;50.806;12.882;2022-08-19T07:16:22;969.3;;;20.9;88.1
68873;BME280;55907;50.806;12.882;2022-08-19T07:19:25;969.3;;;20.9;88.3
68873;BME280;55907;50.806;12.882;2022-08-19T07:22:24;969.3;;;21.0;88.2
68873;BME280;55907;50.806;12.882;2022-08-19T07:25:26;969.5;;;21.0;88.1
68873;BME280;55907;50.806;12.882;2022-08-19T07:28:27;969.5;;;20.9;88.6
68873;BME280;55907;50.806;12.882;2022-08-19T07:31:28;969.5;;;20.9;88.8
68873;BME280;55907;50.806;12.882;2022-08-19T07:34:31;969.5;;;20.8;89.1
68873;BME280;55907;50.806;12.882;2022-08-19T07:37:31;969.6;;;20.8;89.5
68873;BME280;55907;50.806;12.882;2022-08-19T07:40:33;969.6;;;20.8;89.3
68873;BME280;55907;50.806;12.882;2022-08-19T07:43:35;969.6;;;20.8;89.1
68873;BME280;55907;50.806;12.882;2022-08-19T07:46:39;969.6;;;20.8;88.9
68873;BME280;55907;50.806;12.882;2022-08-19T07:49:37;969.6;;;20.6;89.4
68873;BME280;55907;50.806;12.882;2022-08-19T07:52:38;969.6;;;20.6;89.3
68873;BME280;55907;50.806;12.882;2022-08-19T07:55:39;969.7;;;20.6;89.1
68873;BME280;55907;50.806;12.882;2022-08-19T07:58:43;969.7;;;20.6;89.0
68873;BME280;55907;50.806;12.882;2022-08-19T08:01:43;969.8;;;20.6;88.9
68873;BME280;55907;50.806;12.882;2022-08-19T08:04:43;969.8;;;20.7;88.8
68873;BME280;55907;50.806;12.882;2022-08-19T08:07:45;969.9;;;20.7;88.5
68873;BME280;55907;50.806;12.882;2022-08-19T08:10:46;969.9;;;20.7;88.6
68873;BME280;55907;50.806;12.882;2022-08-19T08:13:48;970.0;;;20.8;88.7
68873;BME280;55907;50.806;12.882;2022-08-19T08:16:49;970.0;;;20.8;88.2
68873;BME280;55907;50.806;12.882;2022-08-19T08:19:50;970.0;;;20.8;88.6
68873;BME280;55907;50.806;12.882;2022-08-19T08:22:52;969.9;;;20.8;88.8
68873;BME280;55907;50.806;12.882;2022-08-19T08:25:55;970.0;;;20.8;88.5
68873;BME280;55907;50.806;12.882;2022-08-19T08:28:54;970.0;;;20.9;88.3
68873;BME280;55907;50.806;12.882;2022-08-19T08:31:56;970.0;;;20.9;88.1
68873;BME280;55907;50.806;12.882;2022-08-19T08:34:57;970.0;;;20.9;88.0
68873;BME280;55907;50.806;12.882;2022-08-19T08:37:58;970.0;;;20.9;87.8
68873;BME280;55907;50.806;12.882;2022-08-19T08:41:07;970.0;;;20.8;87.9
68873;BME280;55907;50.806;12.882;2022-08-19T08:44:02;970.0;;;20.8;88.4
68873;BME280;55907;50.806;12.882;2022-08-19T08:47:04;970.1;;;20.8;88.1
68873;BME280;55907;50.806;12.882;2022-08-19T08:50:07;970.1;;;20.8;88.5
68873;BME280;55907;50.806;12.882;2022-08-19T08:53:07;970.2;;;20.7;87.9
68873;BME280;55907;50.806;12.882;2022-08-19T08:56:08;970.2;;;20.7;87.9
68873;BME280;55907;50.806;12.882;2022-08-19T08:59:12;970.3;;;20.6;89.2
68873;BME280;55907;50.806;12.882;2022-08-19T09:02:09;970.3;;;20.6;89.6
68873;BME280;55907;50.806;12.882;2022-08-19T09:05:11;970.2;;;20.6;90.4
68873;BME280;55907;50.806;12.882;2022-08-19T09:08:17;970.1;;;20.8;88.2
68873;BME280;55907;50.806;12.882;2022-08-19T09:11:15;969.9;;;20.8;88.0
68873;BME280;55907;50.806;12.882;2022-08-19T09:14:22;969.9;;;20.9;88.0
68873;BME280;55907;50.806;12.882;2022-08-19T09:17:18;969.9;;;20.9;87.7
68873;BME280;55907;50.806;12.882;2022-08-19T09:20:20;969.9;;;21.0;87.5
68873;BME280;55907;50.806;12.882;2022-08-19T09:23:19;969.9;;;21.0;87.2
68873;BME280;55907;50.806;12.882;2022-08-19T09:26:22;969.9;;;21.0;87.0
68873;BME280;55907;50.806;12.882;2022-08-19T09:29:22;969.9;;;21.1;86.4
68873;BME280;55907;50.806;12.882;2022-08-19T09:32:24;969.9;;;21.3;86.1
68873;BME280;55907;50.806;12.882;2022-08-19T09:35:26;970.0;;;21.5;84.7
68873;BME280;55907;50.806;12.882;2022-08-19T09:38:26;970.0;;;21.8;83.3
68873;BME280;55907;50.806;12.882;2022-08-19T09:41:28;970.0;;;22.1;81.6
68873;BME280;55907;50.806;12.882;2022-08-19T09:44:28;970.1;;;22.2;80.7
68873;BME280;55907;50.806;12.882;2022-08-19T09:47:30;970.1;;;22.3;80.9
68873;BME280;55907;50.806;12.882;2022-08-19T09:50:31;969.9;;;22.5;80.8
68873;BME280;55907;50.806;12.882;2022-08-19T09:53:33;969.9;;;22.7;79.3
68873;BME280;55907;50.806;12.882;2022-08-19T09:56:34;970.0;;;22.9;78.1
68873;BME280;55907;50.806;12.882;2022-08-19T09:59:35;969.9;;;23.2;76.6
68873;BME280;55907;50.806;12.882;2022-08-19T10:02:37;969.9;;;23.3;76.0
68873;BME280;55907;50.806;12.882;2022-08-19T10:05:38;970.0;;;23.1;76.4
68873;BME280;55907;50.806;12.882;2022-08-19T10:08:39;970.0;;;23.0;76.0
68873;BME280;55907;50.806;12.882;2022-08-19T10:11:43;970.1;;;23.0;76.2
68873;BME280;55907;50.806;12.882;2022-08-19T10:14:42;970.1;;;23.0;76.1
68873;BME280;55907;50.806;12.882;2022-08-19T10:17:43;970.2;;;23.0;76.2
68873;BME280;55907;50.806;12.882;2022-08-19T10:20:45;970.0;;;23.0;75.3
68873;BME280;55907;50.806;12.882;2022-08-19T10:23:49;970.1;;;23.1;74.6
68873;BME280;55907;50.806;12.882;2022-08-19T10:26:47;970.0;;;23.0;73.5
68873;BME280;55907;50.806;12.882;2022-08-19T10:29:49;970.1;;;22.9;74.4
68873;BME280;55907;50.806;12.882;2022-08-19T10:32:50;970.2;;;22.7;75.6
68873;BME280;55907;50.806;12.882;2022-08-19T10:35:58;970.2;;;22.5;76.2
68873;BME280;55907;50.806;12.882;2022-08-19T10:38:54;970.3;;;22.4;77.2
68873;BME280;55907;50.806;12.882;2022-08-19T10:41:54;970.4;;;22.3;77.8
68873;BME280;55907;50.806;12.882;2022-08-19T10:44:56;970.4;;;22.1;77.1
68873;BME280;55907;50.806;12.882;2022-08-19T10:47:57;970.5;;;22.1;77.3
68873;BME280;55907;50.806;12.882;2022-08-19T10:50:58;970.5;;;22.1;77.2
68873;BME280;55907;50.806;12.882;2022-08-19T10:54:00;970.5;;;22.2;77.5
68873;BME280;55907;50.806;12.882;2022-08-19T10:57:01;970.5;;;22.4;76.5
68873;BME280;55907;50.806;12.882;2022-08-19T11:00:03;970.4;;;22.6;75.1
68873;BME280;55907;50.806;12.882;2022-08-19T11:06:07;970.4;;;22.9;74.6
68873;BME280;55907;50.806;12.882;2022-08-19T11:09:07;970.4;;;23.2;73.0
68873;BME280;55907;50.806;12.882;2022-08-19T11:12:08;970.4;;;23.3;72.9
68873;BME280;55907;50.806;12.882;2022-08-19T11:15:09;970.4;;;23.3;72.5
68873;BME280;55907;50.806;12.882;2022-08-19T11:18:11;970.5;;;23.3;72.4
68873;BME280;55907;50.806;12.882;2022-08-19T11:21:15;970.4;;;23.5;72.1
68873;BME280;55907;50.806;12.882;2022-08-19T11:24:15;970.5;;;23.3;72.4
68873;BME280;55907;50.806;12.882;2022-08-19T11:27:14;970.5;;;23.0;73.4
68873;BME280;55907;50.806;12.882;2022-08-19T11:30:16;970.5;;;22.8;74.1
68873;BME280;55907;50.806;12.882;2022-08-19T11:33:17;970.5;;;22.6;74.9
68873;BME280;55907;50.806;12.882;2022-08-19T11:36:20;970.6;;;22.4;75.5
68873;BME280;55907;50.806;12.882;2022-08-19T11:39:21;970.5;;;22.3;76.1
68873;BME280;55907;50.806;12.882;2022-08-19T11:42:21;970.5;;;22.2;76.4
68873;BME280;55907;50.806;12.882;2022-08-19T11:48:25;970.5;;;21.9;78.0
68873;BME280;55907;50.806;12.882;2022-08-19T11:51:27;970.4;;;21.7;78.9
68873;BME280;55907;50.806;12.882;2022-08-19T11:54:27;970.4;;;21.6;79.6
68873;BME280;55907;50.806;12.882;2022-08-19T11:57:28;970.5;;;21.6;79.7
68873;BME280;55907;50.806;12.882;2022-08-19T12:00:29;970.6;;;21.4;80.3
68873;BME280;55907;50.806;12.882;2022-08-19T12:03:31;970.6;;;21.3;80.6
68873;BME280;55907;50.806;12.882;2022-08-19T12:06:33;970.6;;;21.2;80.8
68873;BME280;55907;50.806;12.882;2022-08-19T12:09:33;970.6;;;21.2;81.3
68873;BME280;55907;50.806;12.882;2022-08-19T12:12:35;970.7;;;21.2;81.1
68873;BME280;55907;50.806;12.882;2022-08-19T12:15:37;970.8;;;21.1;81.7
68873;BME280;55907;50.806;12.882;2022-08-19T12:18:38;970.8;;;20.9;82.3
68873;BME280;55907;50.806;12.882;2022-08-19T12:21:39;970.8;;;20.9;82.7
68873;BME280;55907;50.806;12.882;2022-08-19T12:24:40;970.8;;;20.8;82.7
68873;BME280;55907;50.806;12.882;2022-08-19T12:27:42;970.9;;;20.8;83.9
68873;BME280;55907;50.806;12.882;2022-08-19T12:30:46;970.9;;;20.8;83.2
68873;BME280;55907;50.806;12.882;2022-08-19T12:33:45;970.9;;;20.8;83.5
68873;BME280;55907;50.806;12.882;2022-08-19T12:36:46;970.9;;;20.8;83.4
68873;BME280;55907;50.806;12.882;2022-08-19T12:39:47;971.0;;;20.8;82.8
68873;BME280;55907;50.806;12.882;2022-08-19T12:42:49;971.0;;;20.8;82.7
68873;BME280;55907;50.806;12.882;2022-08-19T12:45:50;970.9;;;20.9;82.5
68873;BME280;55907;50.806;12.882;2022-08-19T12:48:51;971.0;;;20.8;82.9
68873;BME280;55907;50.806;12.882;2022-08-19T12:51:53;971.0;;;20.8;83.2
68873;BME280;55907;50.806;12.882;2022-08-19T12:54:55;971.0;;;20.8;83.4
68873;BME280;55907;50.806;12.882;2022-08-19T12:57:55;971.0;;;20.8;82.7
68873;BME280;55907;50.806;12.882;2022-08-19T13:00:57;970.9;;;20.8;82.4
68873;BME280;55907;50.806;12.882;2022-08-19T13:03:58;970.9;;;20.7;82.2
68873;BME280;55907;50.806;12.882;2022-08-19T13:06:59;970.9;;;20.7;82.0
68873;BME280;55907;50.806;12.882;2022-08-19T13:10:01;970.9;;;20.7;82.1
68873;BME280;55907;50.806;12.882;2022-08-19T13:13:04;970.9;;;20.8;81.6
68873;BME280;55907;50.806;12.882;2022-08-19T13:16:04;970.8;;;20.8;81.4
68873;BME280;55907;50.806;12.882;2022-08-19T13:19:05;970.8;;;20.8;81.1
68873;BME280;55907;50.806;12.882;2022-08-19T13:22:06;970.9;;;20.9;81.2
68873;BME280;55907;50.806;12.882;2022-08-19T13:25:08;970.9;;;20.9;81.5
68873;BME280;55907;50.806;12.882;2022-08-19T13:28:09;970.9;;;20.9;81.4
68873;BME280;55907;50.806;12.882;2022-08-19T13:31:10;970.9;;;21.0;80.6
68873;BME280;55907;50.806;12.882;2022-08-19T13:34:12;970.9;;;21.1;79.8
68873;BME280;55907;50.806;12.882;2022-08-19T13:37:13;970.9;;;21.1;80.2
68873;BME280;55907;50.806;12.882;2022-08-19T13:40:16;970.9;;;21.2;79.5
68873;BME280;55907;50.806;12.882;2022-08-19T13:43:16;970.9;;;21.1;79.7
68873;BME280;55907;50.806;12.882;2022-08-19T13:46:17;970.9;;;21.1;80.0
68873;BME280;55907;50.806;12.882;2022-08-19T13:49:19;970.9;;;21.1;79.3
68873;BME280;55907;50.806;12.882;2022-08-19T13:52:20;970.9;;;21.1;79.7
68873;BME280;55907;50.806;12.882;2022-08-19T13:55:22;970.8;;;21.1;79.7
68873;BME280;55907;50.806;12.882;2022-08-19T14:01:24;970.8;;;21.2;78.8
68873;BME280;55907;50.806;12.882;2022-08-19T14:04:25;970.7;;;21.2;78.4
68873;BME280;55907;50.806;12.882;2022-08-19T14:07:27;970.8;;;21.3;78.6
68873;BME280;55907;50.806;12.882;2022-08-19T14:10:28;970.8;;;21.4;77.9
68873;BME280;55907;50.806;12.882;2022-08-19T14:13:29;970.8;;;21.5;77.3
68873;BME280;55907;50.806;12.882;2022-08-19T14:16:31;970.8;;;21.6;76.8
68873;BME280;55907;50.806;12.882;2022-08-19T14:19:32;970.8;;;21.6;76.7
68873;BME280;55907;50.806;12.882;2022-08-19T14:22:34;970.7;;;21.7;76.8
68873;BME280;55907;50.806;12.882;2022-08-19T14:25:35;970.7;;;21.7;76.4
68873;BME280;55907;50.806;12.882;2022-08-19T14:28:36;970.7;;;21.7;76.4
68873;BME280;55907;50.806;12.882;2022-08-19T14:31:37;970.8;;;21.7;76.1
68873;BME280;55907;50.806;12.882;2022-08-19T14:34:39;970.8;;;21.8;75.4
68873;BME280;55907;50.806;12.882;2022-08-19T14:37:42;970.8;;;21.7;75.6
68873;BME280;55907;50.806;12.882;2022-08-19T14:40:41;970.9;;;21.8;76.1
68873;BME280;55907;50.806;12.882;2022-08-19T14:43:44;970.9;;;21.8;75.8
68873;BME280;55907;50.806;12.882;2022-08-19T14:46:44;970.9;;;21.8;74.8
68873;BME280;55907;50.806;12.882;2022-08-19T14:49:45;970.9;;;21.8;74.8
68873;BME280;55907;50.806;12.882;2022-08-19T14:52:48;970.9;;;21.8;75.1
68873;BME280;55907;50.806;12.882;2022-08-19T14:55:48;970.9;;;21.8;75.1
68873;BME280;55907;50.806;12.882;2022-08-19T14:58:50;970.9;;;21.8;76.2
68873;BME280;55907;50.806;12.882;2022-08-19T15:01:51;970.9;;;21.7;75.5
68873;BME280;55907;50.806;12.882;2022-08-19T15:04:52;970.9;;;21.7;75.8
68873;BME280;55907;50.806;12.882;2022-08-19T15:07:54;970.9;;;21.7;75.9
68873;BME280;55907;50.806;12.882;2022-08-19T15:10:55;970.9;;;21.7;75.9
68873;BME280;55907;50.806;12.882;2022-08-19T15:13:56;970.9;;;21.7;75.7
68873;BME280;55907;50.806;12.882;2022-08-19T15:16:58;970.9;;;21.7;75.7
68873;BME280;55907;50.806;12.882;2022-08-19T15:19:59;970.9;;;21.7;75.8
68873;BME280;55907;50.806;12.882;2022-08-19T15:23:00;970.9;;;21.7;75.2
68873;BME280;55907;50.806;12.882;2022-08-19T15:26:02;970.9;;;21.6;75.2
68873;BME280;55907;50.806;12.882;2022-08-19T15:29:04;970.9;;;21.6;74.9
68873;BME280;55907;50.806;12.882;2022-08-19T15:32:05;970.8;;;21.6;74.8
68873;BME280;55907;50.806;12.882;2022-08-19T15:35:06;970.9;;;21.5;75.1
68873;BME280;55907;50.806;12.882;2022-08-19T15:38:07;970.8;;;21.5;75.1
68873;BME280;55907;50.806;12.882;2022-08-19T15:41:16;970.7;;;21.6;75.4
68873;BME280;55907;50.806;12.882;2022-08-19T15:44:12;970.7;;;21.5;75.6
68873;BME280;55907;50.806;12.882;2022-08-19T15:47:11;970.6;;;21.4;76.3
68873;BME280;55907;50.806;12.882;2022-08-19T15:50:15;970.7;;;21.5;76.1
68873;BME280;55907;50.806;12.882;2022-08-19T15:53:14;970.7;;;21.4;76.5
68873;BME280;55907;50.806;12.882;2022-08-19T15:56:17;970.7;;;21.4;76.8
68873;BME280;55907;50.806;12.882;2022-08-19T15:59:16;970.8;;;21.3;77.1
68873;BME280;55907;50.806;12.882;2022-08-19T16:02:19;970.8;;;21.2;77.5
68873;BME280;55907;50.806;12.882;2022-08-19T16:05:22;970.8;;;21.1;77.5
68873;BME280;55907;50.806;12.882;2022-08-19T16:08:20;970.7;;;21.1;77.5
68873;BME280;55907;50.806;12.882;2022-08-19T16:11:24;970.7;;;21.1;77.9
68873;BME280;55907;50.806;12.882;2022-08-19T16:14:23;970.8;;;21.0;78.0
68873;BME280;55907;50.806;12.882;2022-08-19T16:17:24;970.8;;;20.9;78.5
68873;BME280;55907;50.806;12.882;2022-08-19T16:20:26;970.7;;;20.9;78.5
68873;BME280;55907;50.806;12.882;2022-08-19T16:23:27;970.7;;;20.8;78.6
68873;BME280;55907;50.806;12.882;2022-08-19T16:26:29;970.7;;;20.8;78.8
68873;BME280;55907;50.806;12.882;2022-08-19T16:29:30;970.7;;;20.8;78.5
68873;BME280;55907;50.806;12.882;2022-08-19T16:32:31;970.7;;;20.8;78.8
68873;BME280;55907;50.806;12.882;2022-08-19T16:35:33;970.7;;;20.8;79.2
68873;BME280;55907;50.806;12.882;2022-08-19T16:38:34;970.7;;;20.8;78.8
68873;BME280;55907;50.806;12.882;2022-08-19T16:41:36;970.8;;;20.8;78.8
68873;BME280;55907;50.806;12.882;2022-08-19T16:44:40;970.8;;;20.8;78.8
68873;BME280;55907;50.806;12.882;2022-08-19T16:47:38;970.8;;;20.7;78.5
68873;BME280;55907;50.806;12.882;2022-08-19T16:50:39;970.8;;;20.8;78.6
68873;BME280;55907;50.806;12.882;2022-08-19T16:53:42;970.9;;;20.8;79.2
68873;BME280;55907;50.806;12.882;2022-08-19T16:56:42;970.9;;;20.7;78.7
68873;BME280;55907;50.806;12.882;2022-08-19T16:59:44;970.8;;;20.7;79.2
68873;BME280;55907;50.806;12.882;2022-08-19T17:02:45;970.8;;;20.7;79.3
68873;BME280;55907;50.806;12.882;2022-08-19T17:05:47;970.7;;;20.7;79.1
68873;BME280;55907;50.806;12.882;2022-08-19T17:08:48;970.8;;;20.8;78.8
68873;BME280;55907;50.806;12.882;2022-08-19T17:11:49;970.7;;;20.8;79.2
68873;BME280;55907;50.806;12.882;2022-08-19T17:14:50;970.7;;;20.8;79.0
68873;BME280;55907;50.806;12.882;2022-08-19T17:17:51;970.7;;;20.7;78.9
68873;BME280;55907;50.806;12.882;2022-08-19T17:20:53;970.7;;;20.7;79.4
68873;BME280;55907;50.806;12.882;2022-08-19T17:23:54;970.7;;;20.7;79.7